Surface Preassure
0:00 UTC
12:00 UTC (Click for larger versions)
Andrewsfield Outlook

Current time:


  07:21:41pm (GMT)      07:21:41pm (UTC)


Headline: Mainly dry overnight. Sunny spells on Wednesday with brisk winds.

This Evening and Tonight: Mainly dry and often cloudy this evening and overnight. Occasional drizzle is possible on the Yorkshire Dales. Clear spells in the east may allow some mist and fog patches. Brisk southwest winds over hills, lighter in east. Minimum Temperature 3C.

Wednesday: Early mist and fog will clear. Then dry with variable cloud and sunny spells, together with brisk southerly winds. Increasing cloud will bring occasional rain during the evening and overnight. Maximum Temperature 14C.

Outlook for Thursday to Saturday: Sunny spells and occasional showers on Thursday, then frosty overnight. Dry, bright start to Friday, then cloudy and windy with occasionally heavy rain later Friday, and further rain on Saturday.

Nearby METAR/TAF

Stansted (EGSS)


Current conditions: VFR

METAR: EGSS 221850Z AUTO 17004KT 9999 NCD 10/06 Q1022

TAF: TAF EGSS 221704Z 2218/2324 15005KT 9999 SCT035 PROB40 2220/2223 6000 BECMG 2223/2302 6000 PROB30 2301/2307 1100 BR BECMG 2307/2310 9999 PROB30 TEMPO 2307/2310 BKN002 TEMPO 2310/2324 6000 RA BKN009 PROB30 TEMPO 2318/2324 4000 +RA BKN003

Southend (EGMC)


Current conditions: VFR

METAR: EGMC 221850Z 00000KT CAVOK 06/06 Q1022

TAF: TAF EGMC 221655Z 2218/2303 15003KT 9999 FEW040 BECMG 2219/2222 7000 TEMPO 2222/2303 3000 BR PROB30 TEMPO 2223/2303 0300 FG VV///

RAF Wattisham (EGUW)


Current conditions: VFR

METAR: EGUW 221850Z 17006KT 9999 FEW040 09/07 Q1022 NOSIG RMK BLU BLU

TAF: TAF EGUW 221640Z 2218/2301 20004KT 9999 SCT030 BECMG 2220/2223 5000 BR PROB30 2223/2301 0500 FG BKN000